Time;durP1;ratioP1;P1;durP2;ratioP2;P2;SDS_P1;SDS_P2;PMS_P1;PMS_P2;Temp;Humidity;BMP_temperature;BMP_pressure;BME280_temperature;BME280_humidity;BME280_pressure;Samples;Min_cycle;Max_cycle;Signal;HPM_P1;HPM_P2
2022/11/06 00:02:22;;;;;;;16.08;8.65;;;;;;;;;;4906262;29;20064;-70
2022/11/06 00:04:48;;;;;;;18.05;9.23;;;;;;;;;;4894798;29;20045;-72
2022/11/06 00:07:14;;;;;;;22.75;9.13;;;;;;;;;;4894517;29;20052;-69
2022/11/06 00:09:40;;;;;;;20.27;9.43;;;;;;;;;;4899257;29;20383;-76
2022/11/06 00:12:06;;;;;;;20.38;9.10;;;;;;;;;;4910428;29;20103;-68
2022/11/06 00:14:32;;;;;;;16.75;9.57;;;;;;;;;;4897419;29;20127;-75
2022/11/06 00:16:58;;;;;;;19.17;9.98;;;;;;;;;;4914311;29;20468;-72
2022/11/06 00:19:24;;;;;;;19.95;9.70;;;;;;;;;;4908809;29;20411;-76
2022/11/06 00:21:50;;;;;;;19.23;9.90;;;;;;;;;;4896665;29;20045;-71
2022/11/06 00:24:17;;;;;;;23.40;10.90;;;;;;;;;;4895614;29;20100;-71
2022/11/06 00:26:43;;;;;;;23.77;10.82;;;;;;;;;;4912897;29;20693;-70
2022/11/06 00:29:12;;;;;;;25.67;12.20;;;;;;;;;;4913774;29;20502;-72
2022/11/06 00:31:38;;;;;;;20.23;11.82;;;;;;;;;;4893434;29;20051;-71
2022/11/06 00:34:07;;;;;;;20.75;11.35;;;;;;;;;;4894811;29;20056;-69
2022/11/06 00:36:34;;;;;;;24.90;12.35;;;;;;;;;;4908029;29;20135;-70
2022/11/06 00:39:03;;;;;;;22.83;11.68;;;;;;;;;;4913811;29;20067;-74
2022/11/06 00:41:29;;;;;;;23.88;11.95;;;;;;;;;;4899164;29;20052;-75
2022/11/06 00:43:57;;;;;;;24.40;12.43;;;;;;;;;;4893677;29;20048;-70
2022/11/06 00:46:23;;;;;;;25.85;12.63;;;;;;;;;;4897586;29;21536;-78
2022/11/06 00:48:49;;;;;;;19.92;12.20;;;;;;;;;;4894936;29;20064;-68
2022/11/06 00:51:17;;;;;;;25.65;13.27;;;;;;;;;;4895063;29;20450;-70
2022/11/06 00:53:43;;;;;;;24.88;13.90;;;;;;;;;;4896097;29;20092;-70
2022/11/06 00:56:14;;;;;;;24.58;14.38;;;;;;;;;;4899841;29;20066;-77
2022/11/06 00:58:40;;;;;;;26.75;14.60;;;;;;;;;;4913764;29;20052;-72
2022/11/06 01:01:10;;;;;;;21.98;13.25;;;;;;;;;;4908336;29;20053;-72
2022/11/06 01:03:37;;;;;;;24.02;13.45;;;;;;;;;;4894878;29;20054;-70
2022/11/06 01:06:04;;;;;;;23.33;13.98;;;;;;;;;;4897408;29;20059;-72
2022/11/06 01:08:31;;;;;;;21.67;13.73;;;;;;;;;;4914599;29;20107;-75
2022/11/06 01:10:57;;;;;;;24.25;14.32;;;;;;;;;;4912770;29;20131;-73
2022/11/06 01:13:23;;;;;;;27.77;13.52;;;;;;;;;;4898813;29;20048;-68
2022/11/06 01:15:49;;;;;;;23.52;13.32;;;;;;;;;;4892121;29;20121;-69
2022/11/06 01:18:15;;;;;;;22.55;13.57;;;;;;;;;;4912747;29;20107;-75
2022/11/06 01:20:41;;;;;;;26.23;13.98;;;;;;;;;;4898749;29;20072;-67
2022/11/06 01:23:07;;;;;;;27.85;14.40;;;;;;;;;;4911455;29;20087;-70
2022/11/06 01:25:34;;;;;;;23.38;14.38;;;;;;;;;;4913982;29;20048;-73
2022/11/06 01:28:00;;;;;;;21.13;12.80;;;;;;;;;;4911737;29;20048;-65
2022/11/06 01:30:26;;;;;;;29.48;15.27;;;;;;;;;;4904744;29;20056;-70
2022/11/06 01:32:52;;;;;;;25.60;14.68;;;;;;;;;;4905918;29;20055;-72
2022/11/06 01:35:18;;;;;;;31.40;14.88;;;;;;;;;;4914723;29;20139;-70
2022/11/06 01:37:44;;;;;;;26.92;15.90;;;;;;;;;;4910638;29;20473;-74
2022/11/06 01:40:10;;;;;;;31.48;15.43;;;;;;;;;;4910559;29;20088;-75
2022/11/06 01:42:36;;;;;;;24.98;15.88;;;;;;;;;;4901917;29;20345;-79
2022/11/06 01:45:23;;;;;;;25.75;14.70;;;;;;;;;;4914697;29;20492;-72
2022/11/06 01:47:49;;;;;;;28.15;16.27;;;;;;;;;;4911388;29;20048;-74
2022/11/06 01:50:16;;;;;;;31.00;16.73;;;;;;;;;;4914409;29;20052;-72
2022/11/06 01:52:43;;;;;;;32.05;18.00;;;;;;;;;;4897034;29;20056;-77
2022/11/06 01:55:35;;;;;;;29.30;16.65;;;;;;;;;;4895487;29;20060;-74
2022/11/06 01:58:02;;;;;;;32.55;17.20;;;;;;;;;;4902468;29;20052;-71
2022/11/06 02:00:30;;;;;;;35.50;18.15;;;;;;;;;;4913581;29;20135;-74
2022/11/06 02:02:56;;;;;;;29.15;17.05;;;;;;;;;;4898229;29;20477;-67
2022/11/06 02:05:22;;;;;;;31.00;16.60;;;;;;;;;;4913400;29;20052;-71
2022/11/06 02:07:48;;;;;;;31.15;16.75;;;;;;;;;;4912576;29;20048;-72
2022/11/06 02:10:14;;;;;;;32.88;17.60;;;;;;;;;;4914102;29;20148;-69
2022/11/06 02:12:44;;;;;;;29.05;16.15;;;;;;;;;;4897864;29;20058;-69
2022/11/06 02:15:20;;;;;;;30.02;18.73;;;;;;;;;;4913063;29;20055;-76
2022/11/06 02:17:46;;;;;;;30.20;17.23;;;;;;;;;;4912050;29;20098;-71
2022/11/06 02:20:17;;;;;;;26.85;16.67;;;;;;;;;;4902612;29;20093;-72
2022/11/06 02:23:22;;;;;;;30.67;18.80;;;;;;;;;;4904115;29;20059;-71
2022/11/06 02:26:06;;;;;;;27.42;17.23;;;;;;;;;;4911434;29;20052;-70
2022/11/06 02:28:34;;;;;;;28.90;17.58;;;;;;;;;;4912781;29;20062;-72
2022/11/06 02:31:02;;;;;;;28.20;17.85;;;;;;;;;;4901799;29;20473;-71
2022/11/06 02:33:31;;;;;;;30.58;18.27;;;;;;;;;;4906703;29;20449;-71
2022/11/06 02:36:05;;;;;;;26.33;16.77;;;;;;;;;;4897623;29;20060;-68
2022/11/06 02:38:34;;;;;;;28.85;17.30;;;;;;;;;;4908986;29;20143;-73
2022/11/06 02:41:02;;;;;;;29.80;17.40;;;;;;;;;;4905085;29;20077;-70
2022/11/06 02:43:35;;;;;;;27.73;17.58;;;;;;;;;;4907735;29;20167;-68
2022/11/06 02:46:11;;;;;;;29.50;17.45;;;;;;;;;;4916183;29;20401;-66
2022/11/06 02:48:39;;;;;;;27.52;17.90;;;;;;;;;;4910423;29;20048;-72
2022/11/06 02:51:08;;;;;;;29.08;17.88;;;;;;;;;;4897002;29;20139;-70
2022/11/06 02:53:35;;;;;;;32.35;18.50;;;;;;;;;;4905221;29;20152;-72
2022/11/06 02:56:05;;;;;;;29.60;17.98;;;;;;;;;;4914653;29;20609;-68
2022/11/06 02:58:50;;;;;;;30.77;17.35;;;;;;;;;;4911548;29;20152;-74
2022/11/06 03:01:37;;;;;;;28.52;17.85;;;;;;;;;;4896788;29;20049;-68
2022/11/06 03:04:08;;;;;;;25.02;17.67;;;;;;;;;;4905965;29;20059;-73
2022/11/06 03:06:49;;;;;;;34.70;19.33;;;;;;;;;;4913281;29;20368;-77
2022/11/06 03:09:19;;;;;;;28.23;18.08;;;;;;;;;;4907759;29;20067;-74
2022/11/06 03:11:51;;;;;;;29.63;18.15;;;;;;;;;;4884915;29;20372;-69
2022/11/06 03:14:32;;;;;;;29.20;17.27;;;;;;;;;;4914102;29;20152;-72
2022/11/06 03:16:59;;;;;;;30.33;16.95;;;;;;;;;;4913175;29;20052;-74
2022/11/06 03:19:44;;;;;;;28.25;17.65;;;;;;;;;;4908926;29;20052;-73
2022/11/06 03:22:23;;;;;;;26.23;15.98;;;;;;;;;;4896203;29;20135;-68
2022/11/06 03:24:52;;;;;;;26.50;16.23;;;;;;;;;;4906890;29;20559;-69
2022/11/06 03:27:20;;;;;;;30.45;17.45;;;;;;;;;;4913372;29;20051;-72
2022/11/06 03:29:51;;;;;;;27.27;17.35;;;;;;;;;;4901515;29;20574;-69
2022/11/06 03:32:18;;;;;;;27.45;16.83;;;;;;;;;;4895774;29;20052;-69
2022/11/06 03:34:47;;;;;;;27.38;15.45;;;;;;;;;;4903180;29;20170;-68
2022/11/06 03:37:21;;;;;;;26.77;16.70;;;;;;;;;;4910882;29;20479;-69
2022/11/06 03:39:50;;;;;;;26.73;16.73;;;;;;;;;;4905430;29;20359;-70
2022/11/06 03:42:19;;;;;;;24.10;16.83;;;;;;;;;;4896971;29;20202;-73
2022/11/06 03:44:50;;;;;;;24.60;16.15;;;;;;;;;;4899580;29;20143;-71
2022/11/06 03:47:18;;;;;;;25.17;16.98;;;;;;;;;;4913903;29;20059;-70
2022/11/06 03:49:50;;;;;;;25.27;17.05;;;;;;;;;;4911128;29;20048;-67
2022/11/06 03:52:24;;;;;;;27.40;16.75;;;;;;;;;;4896847;29;20429;-67
2022/11/06 03:54:59;;;;;;;25.13;16.38;;;;;;;;;;4897089;29;20445;-72
2022/11/06 03:57:43;;;;;;;24.92;16.85;;;;;;;;;;4913243;29;20455;-72
2022/11/06 04:00:09;;;;;;;26.45;17.10;;;;;;;;;;4910011;29;20069;-71
2022/11/06 04:02:37;;;;;;;26.73;16.63;;;;;;;;;;4895740;29;20140;-67
2022/11/06 04:05:07;;;;;;;28.42;16.27;;;;;;;;;;4898118;29;20052;-68
2022/11/06 04:07:38;;;;;;;28.02;17.80;;;;;;;;;;4913481;29;20536;-69
2022/11/06 04:15:45;;;;;;;31.20;17.25;;;;;;;;;;4885685;29;20048;-69
2022/11/06 04:18:12;;;;;;;25.38;15.93;;;;;;;;;;4912886;29;20115;-87
2022/11/06 04:23:33;;;;;;;27.13;15.82;;;;;;;;;;4914830;29;20048;-72
2022/11/06 04:28:59;;;;;;;27.05;16.25;;;;;;;;;;4912673;29;20092;-73
2022/11/06 04:31:41;;;;;;;28.40;17.00;;;;;;;;;;4900416;29;20060;-70
2022/11/06 04:34:13;;;;;;;29.15;16.10;;;;;;;;;;4914727;29;20044;-73
2022/11/06 04:36:51;;;;;;;26.70;16.83;;;;;;;;;;4913128;29;20055;-72
2022/11/06 04:39:43;;;;;;;26.58;16.15;;;;;;;;;;4912343;29;20570;-74
2022/11/06 04:42:18;;;;;;;24.08;15.38;;;;;;;;;;4895143;29;20048;-70
2022/11/06 04:44:49;;;;;;;24.92;15.73;;;;;;;;;;4894592;29;20192;-72
2022/11/06 04:47:17;;;;;;;27.42;15.38;;;;;;;;;;4902445;29;20052;-84
2022/11/06 04:49:43;;;;;;;27.73;15.82;;;;;;;;;;4911294;29;20052;-70
2022/11/06 04:52:13;;;;;;;24.38;15.80;;;;;;;;;;4903890;29;20446;-68
2022/11/06 04:54:39;;;;;;;23.65;15.77;;;;;;;;;;4913279;29;20481;-83
2022/11/06 04:57:05;;;;;;;24.63;15.40;;;;;;;;;;4911480;29;20052;-77
2022/11/06 04:59:37;;;;;;;25.80;15.45;;;;;;;;;;4911604;29;20052;-72
2022/11/06 05:02:04;;;;;;;23.38;15.57;;;;;;;;;;4902323;29;20127;-67
2022/11/06 05:04:30;;;;;;;;;;;;;;;;;;4913899;29;20083;-74
2022/11/06 05:06:56;;;;;;;25.00;14.57;;;;;;;;;;4909949;29;19989;-73
2022/11/06 05:09:22;;;;;;;24.75;15.18;;;;;;;;;;4904866;29;20060;-76
2022/11/06 05:11:48;;;;;;;28.10;15.93;;;;;;;;;;4893486;29;20060;-74
2022/11/06 05:14:14;;;;;;;26.23;14.68;;;;;;;;;;4903155;29;20123;-76
2022/11/06 05:16:40;;;;;;;24.80;14.45;;;;;;;;;;4895559;29;20100;-76
2022/11/06 05:19:06;;;;;;;28.02;15.63;;;;;;;;;;4904180;29;20056;-78
2022/11/06 05:24:17;;;;;;;24.88;15.15;;;;;;;;;;4893614;29;20441;-76
2022/11/06 05:26:43;;;;;;;24.40;14.35;;;;;;;;;;4894604;29;20479;-75
2022/11/06 05:29:10;;;;;;;27.70;14.02;;;;;;;;;;4905636;29;20052;-64
2022/11/06 05:31:36;;;;;;;24.98;13.68;;;;;;;;;;4895791;29;20064;-71
2022/11/06 05:34:02;;;;;;;29.02;15.05;;;;;;;;;;4905142;29;20066;-71
2022/11/06 05:36:28;;;;;;;24.45;14.13;;;;;;;;;;4896300;29;20575;-75
2022/11/06 05:38:54;;;;;;;24.17;13.90;;;;;;;;;;4911335;29;20127;-72
2022/11/06 05:41:20;;;;;;;25.58;13.40;;;;;;;;;;4899367;29;20469;-74
2022/11/06 05:43:46;;;;;;;23.90;13.02;;;;;;;;;;4904799;29;20131;-73
2022/11/06 05:46:12;;;;;;;20.83;13.00;;;;;;;;;;4912698;29;20052;-72
2022/11/06 05:48:38;;;;;;;23.52;13.57;;;;;;;;;;4911436;29;20128;-73
2022/11/06 05:51:06;;;;;;;23.02;13.23;;;;;;;;;;4905309;29;20377;-79
2022/11/06 05:53:33;;;;;;;26.17;13.77;;;;;;;;;;4897019;29;20048;-75
2022/11/06 05:55:59;;;;;;;24.45;13.13;;;;;;;;;;4911879;29;20056;-76
2022/11/06 05:58:26;;;;;;;22.98;13.68;;;;;;;;;;4911451;29;20108;-78
2022/11/06 06:00:53;;;;;;;24.50;13.02;;;;;;;;;;4909698;29;20079;-72
2022/11/06 06:03:22;;;;;;;22.63;12.55;;;;;;;;;;4897502;29;20059;-81
2022/11/06 06:05:49;;;;;;;20.88;12.65;;;;;;;;;;4915192;29;20052;-75
2022/11/06 06:08:15;;;;;;;21.55;12.43;;;;;;;;;;4916370;29;20103;-70
2022/11/06 06:10:41;;;;;;;;;;;;;;;;;;4913236;29;20404;-76
2022/11/06 06:13:07;;;;;;;21.73;11.65;;;;;;;;;;4902484;29;20018;-69
2022/11/06 06:15:34;;;;;;;21.23;11.35;;;;;;;;;;4910077;29;20093;-70
2022/11/06 06:18:00;;;;;;;22.52;11.85;;;;;;;;;;4915990;29;20084;-70
2022/11/06 06:20:26;;;;;;;23.92;11.82;;;;;;;;;;4902902;29;20509;-71
2022/11/06 06:22:53;;;;;;;25.30;12.50;;;;;;;;;;4912483;29;20048;-79
2022/11/06 06:25:19;;;;;;;22.25;12.05;;;;;;;;;;4914266;29;20048;-72
2022/11/06 06:27:45;;;;;;;18.35;11.15;;;;;;;;;;4915917;29;20123;-71
2022/11/06 06:30:11;;;;;;;21.73;11.52;;;;;;;;;;4908089;29;20103;-81
2022/11/06 06:32:37;;;;;;;20.88;11.75;;;;;;;;;;4907601;29;20083;-75
2022/11/06 06:35:03;;;;;;;19.00;10.63;;;;;;;;;;4914126;29;20051;-68
2022/11/06 06:37:29;;;;;;;24.83;11.85;;;;;;;;;;4915374;29;20052;-69
2022/11/06 06:39:55;;;;;;;22.17;11.88;;;;;;;;;;4914015;29;20075;-72
2022/11/06 06:42:21;;;;;;;21.02;10.80;;;;;;;;;;4904004;29;20475;-67
2022/11/06 06:44:50;;;;;;;28.10;11.05;;;;;;;;;;4914158;29;20055;-74
2022/11/06 06:47:17;;;;;;;23.10;10.40;;;;;;;;;;4914514;29;20051;-75
2022/11/06 06:49:42;;;;;;;;;;;;;;;;;;4915979;29;20060;-74
2022/11/06 06:52:09;;;;;;;23.88;10.55;;;;;;;;;;4903337;29;20284;-74
2022/11/06 06:54:35;;;;;;;25.90;10.40;;;;;;;;;;4914677;29;20174;-70
2022/11/06 06:57:01;;;;;;;23.23;10.10;;;;;;;;;;4913683;29;20052;-72
2022/11/06 06:59:28;;;;;;;26.05;10.18;;;;;;;;;;4905484;29;20056;-69
2022/11/06 07:01:54;;;;;;;23.90;9.82;;;;;;;;;;4899799;29;20048;-75
2022/11/06 07:04:20;;;;;;;19.30;9.63;;;;;;;;;;4896595;29;20434;-76
2022/11/06 07:06:46;;;;;;;27.80;9.20;;;;;;;;;;4878758;29;20131;-77
2022/11/06 07:09:12;;;;;;;20.65;8.98;;;;;;;;;;4898408;29;20063;-76
2022/11/06 07:11:38;;;;;;;22.55;9.07;;;;;;;;;;4896848;29;20135;-69
2022/11/06 07:14:04;;;;;;;20.67;8.63;;;;;;;;;;4902235;29;20418;-70
2022/11/06 07:16:31;;;;;;;18.33;8.73;;;;;;;;;;4889064;29;20052;-73
2022/11/06 07:18:57;;;;;;;18.33;9.20;;;;;;;;;;4896957;29;20173;-80
2022/11/06 07:21:23;;;;;;;;;;;;;;;;;;4897283;29;20064;-72
2022/11/06 07:23:49;;;;;;;16.75;8.20;;;;;;;;;;4895439;29;19930;-71
2022/11/06 07:26:16;;;;;;;20.75;7.53;;;;;;;;;;4896429;29;20060;-71
2022/11/06 07:28:42;;;;;;;17.90;7.55;;;;;;;;;;4901895;29;20116;-71
2022/11/06 07:31:11;;;;;;;20.30;8.30;;;;;;;;;;4903566;29;20080;-73
2022/11/06 07:33:37;;;;;;;19.80;8.10;;;;;;;;;;4893769;29;20048;-78
2022/11/06 07:36:10;;;;;;;19.17;7.63;;;;;;;;;;4896809;29;20060;-82
2022/11/06 07:38:37;;;;;;;19.67;7.80;;;;;;;;;;4884763;29;20053;-72
2022/11/06 07:41:05;;;;;;;17.42;7.05;;;;;;;;;;4888358;29;20076;-75
2022/11/06 07:43:31;;;;;;;18.60;7.30;;;;;;;;;;4895842;29;20044;-73
2022/11/06 07:46:01;;;;;;;19.58;7.25;;;;;;;;;;4899823;29;20722;-71
2022/11/06 07:48:27;;;;;;;22.90;7.82;;;;;;;;;;4920155;29;20477;-73
2022/11/06 07:50:53;;;;;;;18.25;7.95;;;;;;;;;;4896198;29;20196;-74
2022/11/06 07:53:19;;;;;;;21.27;8.05;;;;;;;;;;4894685;29;20097;-78
2022/11/06 07:55:49;;;;;;;21.05;8.00;;;;;;;;;;4888026;29;20135;-72
2022/11/06 07:58:15;;;;;;;20.05;7.93;;;;;;;;;;4896959;29;20536;-69
2022/11/06 08:00:45;;;;;;;16.23;7.30;;;;;;;;;;4914613;29;20071;-71
2022/11/06 08:03:11;;;;;;;21.92;8.05;;;;;;;;;;4885422;29;20040;-73
2022/11/06 08:05:37;;;;;;;19.63;8.73;;;;;;;;;;4914495;29;20139;-79
2022/11/06 08:08:03;;;;;;;17.88;7.47;;;;;;;;;;4914977;29;20436;-83
2022/11/06 08:10:29;;;;;;;21.13;7.20;;;;;;;;;;4914663;29;20479;-76
2022/11/06 08:12:55;;;;;;;19.25;7.55;;;;;;;;;;4899589;29;20487;-80
2022/11/06 08:15:21;;;;;;;20.10;8.05;;;;;;;;;;4895253;29;20522;-82
2022/11/06 08:17:48;;;;;;;19.02;7.65;;;;;;;;;;4914523;29;20126;-80
2022/11/06 08:20:14;;;;;;;17.58;8.00;;;;;;;;;;4908016;29;20044;-75
2022/11/06 08:22:40;;;;;;;23.33;7.55;;;;;;;;;;4914718;29;20108;-77
2022/11/06 08:25:06;;;;;;;21.00;7.55;;;;;;;;;;4907798;29;20044;-71
2022/11/06 08:27:32;;;;;;;;;;;;;;;;;;4896531;29;20796;-71
2022/11/06 08:29:58;;;;;;;17.55;7.45;;;;;;;;;;4900549;29;19942;-76
2022/11/06 08:32:24;;;;;;;17.38;8.45;;;;;;;;;;4895783;29;20128;-75
2022/11/06 08:34:50;;;;;;;16.92;7.97;;;;;;;;;;4906939;29;20166;-82
2022/11/06 08:37:16;;;;;;;17.48;7.32;;;;;;;;;;4913374;29;20059;-76
2022/11/06 08:39:43;;;;;;;21.80;7.90;;;;;;;;;;4906917;29;20106;-75
2022/11/06 08:42:09;;;;;;;17.15;7.53;;;;;;;;;;4908279;29;20052;-75
2022/11/06 08:44:35;;;;;;;19.90;7.30;;;;;;;;;;4901420;29;20041;-76
2022/11/06 08:47:01;;;;;;;23.35;8.35;;;;;;;;;;4894558;29;20123;-72
2022/11/06 08:49:27;;;;;;;22.30;7.00;;;;;;;;;;4895959;29;20140;-75
2022/11/06 08:51:53;;;;;;;16.27;7.05;;;;;;;;;;4901952;29;20060;-78
2022/11/06 08:54:19;;;;;;;21.23;7.03;;;;;;;;;;4891984;29;20111;-80
2022/11/06 08:56:45;;;;;;;16.90;6.85;;;;;;;;;;4896788;29;20051;-77
2022/11/06 08:59:12;;;;;;;19.15;7.25;;;;;;;;;;4913443;29;20052;-80
2022/11/06 09:01:38;;;;;;;17.05;6.88;;;;;;;;;;4904213;29;20381;-80
2022/11/06 09:04:04;;;;;;;17.55;6.70;;;;;;;;;;4901346;29;20040;-77
2022/11/06 09:06:31;;;;;;;16.30;7.15;;;;;;;;;;4897568;29;20554;-74
2022/11/06 09:08:57;;;;;;;15.07;7.93;;;;;;;;;;4911100;29;20068;-78
2022/11/06 09:11:23;;;;;;;16.25;6.63;;;;;;;;;;4903713;29;20044;-72
2022/11/06 09:13:49;;;;;;;20.98;7.20;;;;;;;;;;4909761;29;20044;-74
2022/11/06 09:16:15;;;;;;;18.08;6.68;;;;;;;;;;4899470;29;20353;-76
2022/11/06 09:18:41;;;;;;;15.95;6.90;;;;;;;;;;4892069;29;20382;-71
2022/11/06 09:21:07;;;;;;;15.23;6.63;;;;;;;;;;4894838;29;20374;-71
2022/11/06 09:23:34;;;;;;;15.93;6.10;;;;;;;;;;4906272;29;20085;-69
2022/11/06 09:26:00;;;;;;;18.08;6.28;;;;;;;;;;4888562;29;20118;-72
2022/11/06 09:28:26;;;;;;;21.13;6.00;;;;;;;;;;4906310;29;20155;-75
2022/11/06 09:30:54;;;;;;;16.60;6.00;;;;;;;;;;4893813;29;20136;-74
2022/11/06 09:33:20;;;;;;;21.13;6.65;;;;;;;;;;4893787;29;20080;-76
2022/11/06 09:35:46;;;;;;;16.35;5.80;;;;;;;;;;4892925;29;20136;-77
2022/11/06 09:38:14;;;;;;;17.55;6.68;;;;;;;;;;4896538;29;20295;-78
2022/11/06 09:40:48;;;;;;;17.08;6.07;;;;;;;;;;4894494;29;20078;-75
2022/11/06 09:43:31;;;;;;;16.48;5.80;;;;;;;;;;4894701;29;20055;-73
2022/11/06 09:46:03;;;;;;;15.90;6.22;;;;;;;;;;4893679;29;20044;-76
2022/11/06 09:48:32;;;;;;;13.57;5.70;;;;;;;;;;4884016;29;20131;-71
2022/11/06 09:51:01;;;;;;;21.20;5.72;;;;;;;;;;4889621;29;20064;-72
2022/11/06 09:53:27;;;;;;;16.73;5.75;;;;;;;;;;4893563;29;20068;-77
2022/11/06 09:55:55;;;;;;;14.35;5.40;;;;;;;;;;4894276;29;20427;-79
2022/11/06 09:58:24;;;;;;;16.50;5.68;;;;;;;;;;4894015;29;20065;-73
2022/11/06 10:00:52;;;;;;;16.95;5.57;;;;;;;;;;4893802;29;20068;-69
2022/11/06 10:03:21;;;;;;;14.82;5.53;;;;;;;;;;4896030;29;20473;-76
2022/11/06 10:05:47;;;;;;;14.75;5.93;;;;;;;;;;4897561;29;20127;-78
2022/11/06 10:08:21;;;;;;;13.63;5.28;;;;;;;;;;4893481;29;20614;-75
2022/11/06 10:11:02;;;;;;;17.58;5.47;;;;;;;;;;4898994;29;20393;-82
2022/11/06 10:13:43;;;;;;;14.68;5.53;;;;;;;;;;4896868;29;20152;-71
2022/11/06 10:16:22;;;;;;;16.20;5.55;;;;;;;;;;4894919;29;20052;-72
2022/11/06 10:18:53;;;;;;;18.33;5.85;;;;;;;;;;4895515;29;20385;-77
2022/11/06 10:21:19;;;;;;;19.38;5.65;;;;;;;;;;4894082;29;20135;-74
2022/11/06 10:23:59;;;;;;;14.35;5.25;;;;;;;;;;4887217;29;20051;-79
2022/11/06 10:26:25;;;;;;;17.67;5.30;;;;;;;;;;4895381;29;20457;-70
2022/11/06 10:28:56;;;;;;;15.55;5.78;;;;;;;;;;4897799;29;20063;-72
2022/11/06 10:31:28;;;;;;;15.13;5.10;;;;;;;;;;4904105;29;20052;-69
2022/11/06 10:34:02;;;;;;;18.50;5.40;;;;;;;;;;4902738;29;20047;-74
2022/11/06 10:36:39;;;;;;;16.55;5.28;;;;;;;;;;4894995;29;20056;-71
2022/11/06 10:39:11;;;;;;;14.05;5.38;;;;;;;;;;4888471;29;20655;-67
2022/11/06 10:41:38;;;;;;;16.30;4.95;;;;;;;;;;4894248;29;20049;-71
2022/11/06 10:44:24;;;;;;;15.60;4.68;;;;;;;;;;4896019;29;20052;-68
2022/11/06 10:46:56;;;;;;;14.60;4.85;;;;;;;;;;4890809;29;20496;-67
2022/11/06 10:49:22;;;;;;;15.50;5.20;;;;;;;;;;4906533;29;20063;-71
2022/11/06 10:51:48;;;;;;;13.88;5.03;;;;;;;;;;4894998;29;20481;-69
2022/11/06 10:54:14;;;;;;;17.75;5.03;;;;;;;;;;4892615;29;20504;-74
2022/11/06 10:56:43;;;;;;;13.82;4.65;;;;;;;;;;4896607;29;20067;-72
2022/11/06 10:59:12;;;;;;;14.27;4.40;;;;;;;;;;4892781;29;20528;-65
2022/11/06 11:01:38;;;;;;;13.20;4.20;;;;;;;;;;4891987;29;20473;-81
2022/11/06 11:04:04;;;;;;;16.00;4.68;;;;;;;;;;4894232;29;20127;-70
2022/11/06 11:06:31;;;;;;;14.27;5.03;;;;;;;;;;4893471;29;20251;-68
2022/11/06 11:08:57;;;;;;;;;;;;;;;;;;4891902;29;20450;-69
2022/11/06 11:11:23;;;;;;;12.32;4.47;;;;;;;;;;4894313;29;19998;-69
2022/11/06 11:14:09;;;;;;;13.63;4.40;;;;;;;;;;4894004;29;20124;-67
2022/11/06 11:16:38;;;;;;;11.73;4.35;;;;;;;;;;4879606;29;20446;-69
2022/11/06 11:19:23;;;;;;;16.35;4.88;;;;;;;;;;4888838;29;20091;-68
2022/11/06 11:21:57;;;;;;;14.07;5.00;;;;;;;;;;4895485;29;20052;-71
2022/11/06 11:24:23;;;;;;;15.50;5.30;;;;;;;;;;4899593;29;20173;-68
2022/11/06 11:26:51;;;;;;;14.55;5.38;;;;;;;;;;4914408;29;20048;-65
2022/11/06 11:29:22;;;;;;;17.65;5.50;;;;;;;;;;4909782;29;20471;-70
2022/11/06 11:31:54;;;;;;;13.60;5.50;;;;;;;;;;4893233;29;20408;-69
2022/11/06 11:34:22;;;;;;;17.58;6.35;;;;;;;;;;4892789;29;20500;-68
2022/11/06 11:36:57;;;;;;;15.70;5.60;;;;;;;;;;4895335;29;20041;-72
2022/11/06 11:39:30;;;;;;;15.38;6.15;;;;;;;;;;4897311;29;20060;-69
2022/11/06 11:42:15;;;;;;;19.30;5.78;;;;;;;;;;4894739;29;20049;-74
2022/11/06 11:44:41;;;;;;;18.85;6.00;;;;;;;;;;4889075;29;20362;-77
2022/11/06 11:47:20;;;;;;;17.13;5.95;;;;;;;;;;4894083;29;20405;-75
2022/11/06 11:49:46;;;;;;;18.85;6.18;;;;;;;;;;4897513;29;20135;-68
2022/11/06 11:52:16;;;;;;;19.35;7.05;;;;;;;;;;4892390;29;20045;-71
2022/11/06 11:54:46;;;;;;;16.05;5.50;;;;;;;;;;4893597;29;20047;-76
2022/11/06 11:57:23;;;;;;;19.02;5.90;;;;;;;;;;4894033;29;20111;-68
2022/11/06 11:59:54;;;;;;;17.90;5.78;;;;;;;;;;4894693;29;20477;-67
2022/11/06 12:02:22;;;;;;;16.77;5.55;;;;;;;;;;4892033;29;20449;-74
2022/11/06 12:05:10;;;;;;;18.05;5.82;;;;;;;;;;4893482;29;20053;-73
2022/11/06 12:07:37;;;;;;;14.57;5.13;;;;;;;;;;4891317;29;20131;-70
2022/11/06 12:10:16;;;;;;;15.10;5.78;;;;;;;;;;4890527;29;20048;-70
2022/11/06 12:12:47;;;;;;;14.82;4.85;;;;;;;;;;4891187;29;20064;-68
2022/11/06 12:15:21;;;;;;;16.30;5.38;;;;;;;;;;4892685;29;20522;-66
2022/11/06 12:17:52;;;;;;;12.75;4.78;;;;;;;;;;4892963;29;20048;-70
2022/11/06 12:20:21;;;;;;;14.40;5.05;;;;;;;;;;4893437;29;20119;-69
2022/11/06 12:22:48;;;;;;;17.70;5.43;;;;;;;;;;4892949;29;20040;-68
2022/11/06 12:25:18;;;;;;;14.50;5.47;;;;;;;;;;4892695;29;20147;-71
2022/11/06 12:27:47;;;;;;;15.82;5.45;;;;;;;;;;4894034;29;20060;-70
2022/11/06 12:30:17;;;;;;;16.20;5.53;;;;;;;;;;4892035;29;20048;-69
2022/11/06 12:32:55;;;;;;;14.63;4.80;;;;;;;;;;4891135;29;20044;-70
2022/11/06 12:35:21;;;;;;;14.50;4.90;;;;;;;;;;4890116;29;20662;-69
2022/11/06 12:37:53;;;;;;;13.60;4.90;;;;;;;;;;4890944;29;20049;-71
2022/11/06 12:40:21;;;;;;;15.27;5.13;;;;;;;;;;4889855;29;20096;-74
2022/11/06 12:43:12;;;;;;;15.00;4.90;;;;;;;;;;4890373;29;20095;-75
2022/11/06 12:45:38;;;;;;;15.93;5.45;;;;;;;;;;4892824;29;20115;-68
2022/11/06 12:48:12;;;;;;;12.05;4.70;;;;;;;;;;4894543;29;20051;-68
2022/11/06 12:50:43;;;;;;;16.33;5.10;;;;;;;;;;4894460;29;20104;-70
2022/11/06 12:53:12;;;;;;;11.40;4.50;;;;;;;;;;4890616;29;20044;-70
2022/11/06 12:55:43;;;;;;;13.40;4.50;;;;;;;;;;4893439;29;20125;-71
2022/11/06 12:58:09;;;;;;;14.60;4.85;;;;;;;;;;4887949;29;20079;-73
2022/11/06 13:00:53;;;;;;;14.88;4.35;;;;;;;;;;4888339;29;20064;-72
2022/11/06 13:03:32;;;;;;;14.60;4.00;;;;;;;;;;4894154;29;20076;-67
2022/11/06 13:05:58;;;;;;;15.20;4.18;;;;;;;;;;4893286;29;20056;-71
2022/11/06 13:08:27;;;;;;;14.25;4.97;;;;;;;;;;4890276;29;20052;-71
2022/11/06 13:10:59;;;;;;;12.73;3.75;;;;;;;;;;4891356;29;20049;-71
2022/11/06 13:13:34;;;;;;;15.48;4.78;;;;;;;;;;4892789;29;20112;-74
2022/11/06 13:16:12;;;;;;;20.40;4.63;;;;;;;;;;4886941;29;20115;-74
2022/11/06 13:18:42;;;;;;;13.63;4.15;;;;;;;;;;4891963;29;20136;-65
2022/11/06 13:21:25;;;;;;;15.95;3.78;;;;;;;;;;4887860;29;20076;-71
2022/11/06 13:23:54;;;;;;;13.40;3.83;;;;;;;;;;4887853;29;20044;-70
2022/11/06 13:26:27;;;;;;;12.45;3.78;;;;;;;;;;4888175;29;20056;-71
2022/11/06 13:28:56;;;;;;;12.35;3.63;;;;;;;;;;4893958;29;20146;-69
2022/11/06 13:31:25;;;;;;;11.32;3.90;;;;;;;;;;4902208;29;20104;-71
2022/11/06 13:33:53;;;;;;;14.13;4.00;;;;;;;;;;4880602;29;20049;-74
2022/11/06 13:36:19;;;;;;;11.90;3.65;;;;;;;;;;4874067;29;20124;-69
2022/11/06 13:38:54;;;;;;;17.25;4.22;;;;;;;;;;4890827;29;20521;-66
2022/11/06 13:41:25;;;;;;;14.38;4.05;;;;;;;;;;4886787;29;20179;-68
2022/11/06 13:44:10;;;;;;;18.45;4.82;;;;;;;;;;4907903;29;20045;-71
2022/11/06 13:46:38;;;;;;;16.65;4.72;;;;;;;;;;4896792;29;20075;-67
2022/11/06 13:49:09;;;;;;;15.38;4.13;;;;;;;;;;4909165;29;20116;-78
2022/11/06 13:51:41;;;;;;;13.55;4.10;;;;;;;;;;4908673;29;20048;-72
2022/11/06 13:54:25;;;;;;;16.27;5.00;;;;;;;;;;4892993;29;20121;-74
2022/11/06 13:56:51;;;;;;;14.23;4.00;;;;;;;;;;4892166;29;20061;-69
2022/11/06 13:59:24;;;;;;;16.20;3.63;;;;;;;;;;4905938;29;20089;-71
2022/11/06 14:01:59;;;;;;;11.13;3.67;;;;;;;;;;4879534;29;20059;-68
2022/11/06 14:04:31;;;;;;;15.00;3.60;;;;;;;;;;4908715;29;20051;-73
2022/11/06 14:06:58;;;;;;;14.82;3.58;;;;;;;;;;4907873;29;20045;-77
2022/11/06 14:09:26;;;;;;;11.82;3.65;;;;;;;;;;4891948;29;20070;-72
2022/11/06 14:11:54;;;;;;;16.08;3.60;;;;;;;;;;4891929;29;20127;-66
2022/11/06 14:14:20;;;;;;;23.80;19.75;;;;;;;;;;4901485;29;20058;-70
2022/11/06 14:17:06;;;;;;;15.82;6.28;;;;;;;;;;4902620;29;20360;-81
2022/11/06 14:19:32;;;;;;;11.20;5.40;;;;;;;;;;4899701;29;20056;-69
2022/11/06 14:22:16;;;;;;;12.85;4.47;;;;;;;;;;4887330;29;20116;-71
2022/11/06 14:24:43;;;;;;;13.95;4.03;;;;;;;;;;4886947;29;20217;-72
2022/11/06 14:27:11;;;;;;;13.43;3.78;;;;;;;;;;4888792;29;20054;-67
2022/11/06 14:29:37;;;;;;;15.65;5.32;;;;;;;;;;4890114;29;20119;-65
2022/11/06 14:32:10;;;;;;;11.18;3.03;;;;;;;;;;4890216;29;20053;-73
2022/11/06 14:34:41;;;;;;;14.23;3.83;;;;;;;;;;4891430;29;20176;-74
2022/11/06 14:37:19;;;;;;;13.77;3.53;;;;;;;;;;4892475;29;20096;-83
2022/11/06 14:39:51;;;;;;;12.02;3.35;;;;;;;;;;4890745;29;20200;-72
2022/11/06 14:42:23;;;;;;;14.85;4.05;;;;;;;;;;4889017;29;20186;-72
2022/11/06 14:44:53;;;;;;;13.48;3.85;;;;;;;;;;4891597;29;20569;-76
2022/11/06 14:47:28;;;;;;;10.93;3.40;;;;;;;;;;4891925;29;20052;-70
2022/11/06 14:49:55;;;;;;;15.23;3.50;;;;;;;;;;4890597;29;20048;-71
2022/11/06 14:52:23;;;;;;;14.13;3.63;;;;;;;;;;4890273;29;20067;-69
2022/11/06 14:54:52;;;;;;;12.15;3.92;;;;;;;;;;4892415;29;20199;-71